sensor_id;sensor_type;location;lat;lon;timestamp;pressure;altitude;pressure_sealevel;temperature;humidity
57827;BME280;43656;57.746;11.780;2022-10-15T00:01:15;100361.38;;;12.52;100.00
57827;BME280;43656;57.746;11.780;2022-10-15T00:03:42;100354.09;;;12.52;100.00
57827;BME280;43656;57.746;11.780;2022-10-15T00:06:10;100348.91;;;12.51;100.00
57827;BME280;43656;57.746;11.780;2022-10-15T00:08:36;100323.75;;;12.38;100.00
57827;BME280;43656;57.746;11.780;2022-10-15T00:11:08;100339.19;;;12.50;100.00
57827;BME280;43656;57.746;11.780;2022-10-15T00:13:35;100334.59;;;12.50;100.00
57827;BME280;43656;57.746;11.780;2022-10-15T00:16:00;100336.69;;;12.48;100.00
57827;BME280;43656;57.746;11.780;2022-10-15T00:18:26;100321.41;;;12.42;100.00
57827;BME280;43656;57.746;11.780;2022-10-15T00:20:51;100326.13;;;12.46;100.00
57827;BME280;43656;57.746;11.780;2022-10-15T00:23:17;100329.88;;;12.45;100.00
57827;BME280;43656;57.746;11.780;2022-10-15T00:25:42;100329.28;;;12.43;100.00
57827;BME280;43656;57.746;11.780;2022-10-15T00:28:08;100334.53;;;12.38;100.00
57827;BME280;43656;57.746;11.780;2022-10-15T00:30:33;100302.03;;;12.27;100.00
57827;BME280;43656;57.746;11.780;2022-10-15T00:32:59;100314.34;;;12.41;100.00
57827;BME280;43656;57.746;11.780;2022-10-15T00:35:24;100312.09;;;12.38;100.00
57827;BME280;43656;57.746;11.780;2022-10-15T00:37:50;100321.25;;;12.37;100.00
57827;BME280;43656;57.746;11.780;2022-10-15T00:40:16;100316.66;;;12.37;100.00
57827;BME280;43656;57.746;11.780;2022-10-15T00:42:41;100305.06;;;12.37;100.00
57827;BME280;43656;57.746;11.780;2022-10-15T00:45:11;100307.94;;;12.42;100.00
57827;BME280;43656;57.746;11.780;2022-10-15T00:47:43;100297.13;;;12.42;100.00
57827;BME280;43656;57.746;11.780;2022-10-15T00:50:21;100298.97;;;12.41;100.00
57827;BME280;43656;57.746;11.780;2022-10-15T00:53:01;100295.31;;;12.36;100.00
57827;BME280;43656;57.746;11.780;2022-10-15T00:55:30;100293.66;;;12.35;100.00
57827;BME280;43656;57.746;11.780;2022-10-15T00:58:04;100294.06;;;12.38;100.00
57827;BME280;43656;57.746;11.780;2022-10-15T01:00:30;100279.41;;;12.28;100.00
57827;BME280;43656;57.746;11.780;2022-10-15T01:02:56;100288.41;;;12.40;100.00
57827;BME280;43656;57.746;11.780;2022-10-15T01:05:22;100285.47;;;12.41;100.00
57827;BME280;43656;57.746;11.780;2022-10-15T01:07:48;100258.06;;;12.26;100.00
57827;BME280;43656;57.746;11.780;2022-10-15T01:10:13;100280.09;;;12.41;100.00
57827;BME280;43656;57.746;11.780;2022-10-15T01:23:42;100252.59;;;12.51;100.00
57827;BME280;43656;57.746;11.780;2022-10-15T01:32:07;100241.94;;;12.56;100.00
57827;BME280;43656;57.746;11.780;2022-10-15T01:34:49;100247.09;;;12.58;100.00
57827;BME280;43656;57.746;11.780;2022-10-15T01:37:19;100236.94;;;12.60;100.00
57827;BME280;43656;57.746;11.780;2022-10-15T01:39:58;100231.53;;;12.60;100.00
57827;BME280;43656;57.746;11.780;2022-10-15T01:42:29;100207.84;;;12.43;100.00
57827;BME280;43656;57.746;11.780;2022-10-15T01:45:04;100235.28;;;12.59;100.00
57827;BME280;43656;57.746;11.780;2022-10-15T01:47:35;100239.25;;;12.56;100.00
57827;BME280;43656;57.746;11.780;2022-10-15T01:50:04;100228.09;;;12.53;100.00
57827;BME280;43656;57.746;11.780;2022-10-15T01:52:33;100223.28;;;12.55;100.00
57827;BME280;43656;57.746;11.780;2022-10-15T01:55:03;100220.97;;;12.58;100.00
57827;BME280;43656;57.746;11.780;2022-10-15T01:57:31;100220.50;;;12.61;100.00
57827;BME280;43656;57.746;11.780;2022-10-15T01:59:57;100211.94;;;12.64;100.00
57827;BME280;43656;57.746;11.780;2022-10-15T02:02:23;100207.97;;;12.67;100.00
57827;BME280;43656;57.746;11.780;2022-10-15T02:04:49;100172.84;;;12.55;100.00
57827;BME280;43656;57.746;11.780;2022-10-15T02:10:14;100191.47;;;12.75;100.00
57827;BME280;43656;57.746;11.780;2022-10-15T02:23:22;100174.81;;;12.78;100.00
57827;BME280;43656;57.746;11.780;2022-10-15T02:25:49;100165.06;;;12.77;100.00
57827;BME280;43656;57.746;11.780;2022-10-15T02:28:17;100173.31;;;12.82;100.00
57827;BME280;43656;57.746;11.780;2022-10-15T02:30:45;100169.31;;;12.85;100.00
57827;BME280;43656;57.746;11.780;2022-10-15T02:33:13;100169.69;;;12.88;100.00
57827;BME280;43656;57.746;11.780;2022-10-15T02:35:41;100171.31;;;12.89;100.00
57827;BME280;43656;57.746;11.780;2022-10-15T02:38:12;100155.81;;;12.85;100.00
57827;BME280;43656;57.746;11.780;2022-10-15T02:40:40;100154.31;;;12.89;100.00
57827;BME280;43656;57.746;11.780;2022-10-15T02:43:08;100162.78;;;12.92;100.00
57827;BME280;43656;57.746;11.780;2022-10-15T02:45:35;100154.66;;;12.92;100.00
57827;BME280;43656;57.746;11.780;2022-10-15T02:48:01;100152.78;;;12.93;100.00
57827;BME280;43656;57.746;11.780;2022-10-15T02:50:26;100144.44;;;12.94;100.00
57827;BME280;43656;57.746;11.780;2022-10-15T02:52:52;100138.69;;;12.91;100.00
57827;BME280;43656;57.746;11.780;2022-10-15T02:55:17;100117.53;;;12.76;100.00
57827;BME280;43656;57.746;11.780;2022-10-15T02:57:42;100138.09;;;12.89;100.00
57827;BME280;43656;57.746;11.780;2022-10-15T03:00:08;100131.03;;;12.88;100.00
57827;BME280;43656;57.746;11.780;2022-10-15T03:02:34;100137.03;;;12.90;100.00
57827;BME280;43656;57.746;11.780;2022-10-15T03:04:59;100124.59;;;12.89;100.00
57827;BME280;43656;57.746;11.780;2022-10-15T03:07:24;100131.63;;;12.90;100.00
57827;BME280;43656;57.746;11.780;2022-10-15T03:09:50;100122.47;;;12.91;100.00
57827;BME280;43656;57.746;11.780;2022-10-15T03:12:15;100127.88;;;12.91;100.00
57827;BME280;43656;57.746;11.780;2022-10-15T03:14:41;100121.66;;;12.90;100.00
57827;BME280;43656;57.746;11.780;2022-10-15T03:17:06;100126.03;;;12.91;100.00
57827;BME280;43656;57.746;11.780;2022-10-15T03:19:32;100121.66;;;12.90;100.00
57827;BME280;43656;57.746;11.780;2022-10-15T03:21:57;100111.09;;;12.89;100.00
57827;BME280;43656;57.746;11.780;2022-10-15T03:24:23;100103.56;;;12.91;100.00
57827;BME280;43656;57.746;11.780;2022-10-15T03:26:48;100094.91;;;12.89;100.00
57827;BME280;43656;57.746;11.780;2022-10-15T03:29:13;100068.69;;;12.78;100.00
57827;BME280;43656;57.746;11.780;2022-10-15T03:31:39;100097.16;;;12.92;100.00
57827;BME280;43656;57.746;11.780;2022-10-15T03:34:04;100095.25;;;12.92;100.00
57827;BME280;43656;57.746;11.780;2022-10-15T03:36:29;100087.16;;;12.92;100.00
57827;BME280;43656;57.746;11.780;2022-10-15T03:38:55;100086.91;;;12.94;100.00
57827;BME280;43656;57.746;11.780;2022-10-15T03:41:20;100087.28;;;12.98;100.00
57827;BME280;43656;57.746;11.780;2022-10-15T03:43:45;100089.75;;;12.99;100.00
57827;BME280;43656;57.746;11.780;2022-10-15T03:46:11;100082.22;;;13.01;100.00
57827;BME280;43656;57.746;11.780;2022-10-15T03:48:37;100070.13;;;12.92;100.00
57827;BME280;43656;57.746;11.780;2022-10-15T03:51:02;100068.72;;;13.01;100.00
57827;BME280;43656;57.746;11.780;2022-10-15T03:53:27;100082.38;;;13.06;100.00
57827;BME280;43656;57.746;11.780;2022-10-15T03:55:53;100079.66;;;13.06;100.00
57827;BME280;43656;57.746;11.780;2022-10-15T03:58:18;100075.91;;;13.07;100.00
57827;BME280;43656;57.746;11.780;2022-10-15T04:00:44;100073.19;;;13.07;100.00
57827;BME280;43656;57.746;11.780;2022-10-15T04:03:09;100061.94;;;12.99;100.00
57827;BME280;43656;57.746;11.780;2022-10-15T04:05:35;100068.50;;;13.03;100.00
57827;BME280;43656;57.746;11.780;2022-10-15T04:08:02;100067.91;;;13.01;100.00
57827;BME280;43656;57.746;11.780;2022-10-15T04:10:27;100066.63;;;13.03;100.00
57827;BME280;43656;57.746;11.780;2022-10-15T04:12:54;100064.38;;;13.00;100.00
57827;BME280;43656;57.746;11.780;2022-10-15T04:15:19;100055.09;;;12.96;100.00
57827;BME280;43656;57.746;11.780;2022-10-15T04:17:45;100045.13;;;12.97;100.00
57827;BME280;43656;57.746;11.780;2022-10-15T04:20:10;100068.72;;;13.01;100.00
57827;BME280;43656;57.746;11.780;2022-10-15T04:22:36;100046.50;;;12.87;100.00
57827;BME280;43656;57.746;11.780;2022-10-15T04:25:02;100045.94;;;12.85;100.00
57827;BME280;43656;57.746;11.780;2022-10-15T04:27:29;100064.63;;;12.99;100.00
57827;BME280;43656;57.746;11.780;2022-10-15T04:29:54;100045.34;;;12.83;100.00
57827;BME280;43656;57.746;11.780;2022-10-15T04:32:20;100061.78;;;12.93;100.00
57827;BME280;43656;57.746;11.780;2022-10-15T04:34:46;100041.22;;;12.81;100.00
57827;BME280;43656;57.746;11.780;2022-10-15T04:37:12;100077.53;;;12.97;100.00
57827;BME280;43656;57.746;11.780;2022-10-15T04:39:37;100068.84;;;12.94;100.00
57827;BME280;43656;57.746;11.780;2022-10-15T04:42:03;100057.81;;;12.96;100.00
57827;BME280;43656;57.746;11.780;2022-10-15T04:44:28;100062.16;;;12.97;100.00
57827;BME280;43656;57.746;11.780;2022-10-15T04:46:54;100058.03;;;12.94;100.00
57827;BME280;43656;57.746;11.780;2022-10-15T04:49:19;100050.16;;;12.93;100.00
57827;BME280;43656;57.746;11.780;2022-10-15T04:51:44;100032.31;;;12.80;100.00
57827;BME280;43656;57.746;11.780;2022-10-15T04:54:10;100055.22;;;12.89;100.00
57827;BME280;43656;57.746;11.780;2022-10-15T04:56:36;100040.19;;;12.82;100.00
57827;BME280;43656;57.746;11.780;2022-10-15T04:59:05;100051.25;;;12.92;100.00
57827;BME280;43656;57.746;11.780;2022-10-15T05:01:31;100054.97;;;12.91;100.00
57827;BME280;43656;57.746;11.780;2022-10-15T05:03:56;100061.22;;;12.91;100.00
57827;BME280;43656;57.746;11.780;2022-10-15T05:06:22;100049.34;;;12.92;100.00
57827;BME280;43656;57.746;11.780;2022-10-15T05:08:48;100056.19;;;12.95;100.00
57827;BME280;43656;57.746;11.780;2022-10-15T05:11:17;100055.09;;;12.96;100.00
57827;BME280;43656;57.746;11.780;2022-10-15T05:13:43;100066.72;;;12.97;100.00
57827;BME280;43656;57.746;11.780;2022-10-15T05:16:14;100055.72;;;12.98;100.00
57827;BME280;43656;57.746;11.780;2022-10-15T05:18:41;100061.94;;;12.99;100.00
57827;BME280;43656;57.746;11.780;2022-10-15T05:21:07;100057.91;;;13.01;100.00
57827;BME280;43656;57.746;11.780;2022-10-15T05:23:32;100041.81;;;12.94;100.00
57827;BME280;43656;57.746;11.780;2022-10-15T05:26:00;100057.69;;;13.03;100.00
57827;BME280;43656;57.746;11.780;2022-10-15T05:28:26;100063.69;;;13.05;100.00
57827;BME280;43656;57.746;11.780;2022-10-15T05:30:53;100057.44;;;13.04;100.00
57827;BME280;43656;57.746;11.780;2022-10-15T05:33:18;100059.13;;;13.05;100.00
57827;BME280;43656;57.746;11.780;2022-10-15T05:35:45;100058.31;;;13.05;100.00
57827;BME280;43656;57.746;11.780;2022-10-15T05:38:10;100063.25;;;13.08;100.00
57827;BME280;43656;57.746;11.780;2022-10-15T05:40:35;100062.38;;;13.07;100.00
57827;BME280;43656;57.746;11.780;2022-10-15T05:43:01;100056.53;;;13.10;100.00
57827;BME280;43656;57.746;11.780;2022-10-15T05:45:26;100057.34;;;13.11;100.00
57827;BME280;43656;57.746;11.780;2022-10-15T05:47:55;100063.13;;;13.14;100.00
57827;BME280;43656;57.746;11.780;2022-10-15T05:50:23;100058.19;;;13.11;100.00
57827;BME280;43656;57.746;11.780;2022-10-15T05:52:49;100066.66;;;13.15;100.00
57827;BME280;43656;57.746;11.780;2022-10-15T05:55:14;100061.72;;;13.12;100.00
57827;BME280;43656;57.746;11.780;2022-10-15T05:57:39;100064.16;;;13.13;100.00
57827;BME280;43656;57.746;11.780;2022-10-15T06:00:06;100065.22;;;13.12;100.00
57827;BME280;43656;57.746;11.780;2022-10-15T06:02:31;100065.81;;;13.14;100.00
57827;BME280;43656;57.746;11.780;2022-10-15T06:04:57;100066.41;;;13.16;100.00
57827;BME280;43656;57.746;11.780;2022-10-15T06:07:22;100068.03;;;13.17;100.00
57827;BME280;43656;57.746;11.780;2022-10-15T06:09:47;100042.78;;;13.00;100.00
57827;BME280;43656;57.746;11.780;2022-10-15T06:12:13;100075.09;;;13.19;100.00
57827;BME280;43656;57.746;11.780;2022-10-15T06:14:38;100072.41;;;13.19;100.00
57827;BME280;43656;57.746;11.780;2022-10-15T06:17:04;100079.22;;;13.21;100.00
57827;BME280;43656;57.746;11.780;2022-10-15T06:19:30;100077.34;;;13.22;100.00
57827;BME280;43656;57.746;11.780;2022-10-15T06:21:56;100062.75;;;13.11;100.00
57827;BME280;43656;57.746;11.780;2022-10-15T06:24:21;100066.16;;;13.06;100.00
57827;BME280;43656;57.746;11.780;2022-10-15T06:26:47;100086.47;;;13.21;100.00
57827;BME280;43656;57.746;11.780;2022-10-15T06:29:12;100087.31;;;13.21;100.00
57827;BME280;43656;57.746;11.780;2022-10-15T06:31:38;100089.19;;;13.21;100.00
57827;BME280;43656;57.746;11.780;2022-10-15T06:34:03;100080.50;;;13.19;100.00
57827;BME280;43656;57.746;11.780;2022-10-15T06:36:28;100083.66;;;13.15;100.00
57827;BME280;43656;57.746;11.780;2022-10-15T06:38:54;100083.53;;;13.10;100.00
57827;BME280;43656;57.746;11.780;2022-10-15T06:41:19;100084.84;;;13.08;100.00
57827;BME280;43656;57.746;11.780;2022-10-15T06:43:48;100088.59;;;13.07;100.00
57827;BME280;43656;57.746;11.780;2022-10-15T06:46:13;100087.41;;;13.03;100.00
57827;BME280;43656;57.746;11.780;2022-10-15T06:48:41;100090.31;;;13.01;100.00
57827;BME280;43656;57.746;11.780;2022-10-15T06:51:08;100076.25;;;12.99;100.00
57827;BME280;43656;57.746;11.780;2022-10-15T06:53:35;100090.31;;;13.01;100.00
57827;BME280;43656;57.746;11.780;2022-10-15T06:56:01;100082.00;;;13.03;100.00
57827;BME280;43656;57.746;11.780;2022-10-15T06:58:27;100086.94;;;13.06;100.00
57827;BME280;43656;57.746;11.780;2022-10-15T07:00:59;100070.03;;;12.99;100.00
57827;BME280;43656;57.746;11.780;2022-10-15T07:03:24;100094.00;;;13.19;100.00
57827;BME280;43656;57.746;11.780;2022-10-15T07:05:49;100078.47;;;13.14;100.00
57827;BME280;43656;57.746;11.780;2022-10-15T07:08:15;100094.38;;;13.34;100.00
57827;BME280;43656;57.746;11.780;2022-10-15T07:10:40;100102.97;;;13.43;100.00
57827;BME280;43656;57.746;11.780;2022-10-15T07:13:06;100106.28;;;13.45;100.00
57827;BME280;43656;57.746;11.780;2022-10-15T07:15:31;100105.56;;;13.49;100.00
57827;BME280;43656;57.746;11.780;2022-10-15T07:17:58;100112.94;;;13.54;100.00
57827;BME280;43656;57.746;11.780;2022-10-15T07:20:27;100092.97;;;13.43;100.00
57827;BME280;43656;57.746;11.780;2022-10-15T07:22:58;100114.72;;;13.60;100.00
57827;BME280;43656;57.746;11.780;2022-10-15T07:25:24;100123.06;;;13.58;100.00
57827;BME280;43656;57.746;11.780;2022-10-15T07:27:50;100123.06;;;13.58;100.00
57827;BME280;43656;57.746;11.780;2022-10-15T07:30:15;100112.38;;;13.52;100.00
57827;BME280;43656;57.746;11.780;2022-10-15T07:32:41;100129.06;;;13.60;100.00
57827;BME280;43656;57.746;11.780;2022-10-15T07:35:07;100126.25;;;13.55;100.00
57827;BME280;43656;57.746;11.780;2022-10-15T07:37:33;100126.72;;;13.52;100.00
57827;BME280;43656;57.746;11.780;2022-10-15T07:39:59;100130.94;;;13.48;100.00
57827;BME280;43656;57.746;11.780;2022-10-15T07:42:24;100116.38;;;13.26;100.00
57827;BME280;43656;57.746;11.780;2022-10-15T07:44:50;100081.66;;;12.99;100.00
57827;BME280;43656;57.746;11.780;2022-10-15T07:47:15;100147.97;;;13.37;100.00
57827;BME280;43656;57.746;11.780;2022-10-15T07:49:41;100149.03;;;13.36;100.00
57827;BME280;43656;57.746;11.780;2022-10-15T07:52:06;100123.72;;;13.19;100.00
57827;BME280;43656;57.746;11.780;2022-10-15T07:54:34;100150.78;;;13.30;100.00
57827;BME280;43656;57.746;11.780;2022-10-15T07:57:00;100148.31;;;13.29;100.00
57827;BME280;43656;57.746;11.780;2022-10-15T07:59:27;100153.94;;;13.27;100.00
57827;BME280;43656;57.746;11.780;2022-10-15T08:01:53;100153.38;;;13.25;100.00
57827;BME280;43656;57.746;11.780;2022-10-15T08:04:18;100155.81;;;13.27;100.00
57827;BME280;43656;57.746;11.780;2022-10-15T08:06:45;100159.34;;;13.27;100.00
57827;BME280;43656;57.746;11.780;2022-10-15T08:09:10;100146.75;;;13.21;100.00
57827;BME280;43656;57.746;11.780;2022-10-15T08:11:36;100160.91;;;13.35;100.00
57827;BME280;43656;57.746;11.780;2022-10-15T08:14:01;100172.28;;;13.37;100.00
57827;BME280;43656;57.746;11.780;2022-10-15T08:16:30;100173.38;;;13.48;100.00
57827;BME280;43656;57.746;11.780;2022-10-15T08:18:56;100167.16;;;13.59;100.00
57827;BME280;43656;57.746;11.780;2022-10-15T08:21:22;100176.53;;;13.92;100.00
57827;BME280;43656;57.746;11.780;2022-10-15T08:23:47;100178.28;;;14.09;100.00
57827;BME280;43656;57.746;11.780;2022-10-15T08:26:13;100169.69;;;14.24;100.00
57827;BME280;43656;57.746;11.780;2022-10-15T08:28:38;100159.75;;;14.30;100.00
57827;BME280;43656;57.746;11.780;2022-10-15T08:31:04;100168.34;;;14.27;100.00
57827;BME280;43656;57.746;11.780;2022-10-15T08:33:30;100158.16;;;14.17;100.00
57827;BME280;43656;57.746;11.780;2022-10-15T08:35:56;100182.13;;;14.25;100.00
57827;BME280;43656;57.746;11.780;2022-10-15T08:38:21;100184.72;;;14.20;100.00
57827;BME280;43656;57.746;11.780;2022-10-15T08:41:14;100184.63;;;14.15;100.00
57827;BME280;43656;57.746;11.780;2022-10-15T08:43:45;100184.97;;;14.07;100.00
57827;BME280;43656;57.746;11.780;2022-10-15T08:46:17;100192.75;;;14.15;100.00
57827;BME280;43656;57.746;11.780;2022-10-15T08:48:50;100191.66;;;14.28;100.00
57827;BME280;43656;57.746;11.780;2022-10-15T08:51:19;100195.41;;;14.27;100.00
57827;BME280;43656;57.746;11.780;2022-10-15T08:53:54;100194.84;;;14.25;100.00
57827;BME280;43656;57.746;11.780;2022-10-15T08:56:44;100197.66;;;14.30;100.00
57827;BME280;43656;57.746;11.780;2022-10-15T09:04:24;100210.13;;;14.31;100.00
57827;BME280;43656;57.746;11.780;2022-10-15T09:07:07;100215.66;;;14.36;100.00
57827;BME280;43656;57.746;11.780;2022-10-15T09:09:59;100207.44;;;14.31;100.00
57827;BME280;43656;57.746;11.780;2022-10-15T09:12:49;100207.09;;;14.27;100.00
57827;BME280;43656;57.746;11.780;2022-10-15T09:15:23;100220.16;;;14.30;100.00
57827;BME280;43656;57.746;11.780;2022-10-15T09:17:51;100214.34;;;14.27;100.00
57827;BME280;43656;57.746;11.780;2022-10-15T09:20:28;100203.22;;;14.12;100.00
57827;BME280;43656;57.746;11.780;2022-10-15T09:22:54;100221.31;;;14.23;100.00
57827;BME280;43656;57.746;11.780;2022-10-15T09:25:21;100227.53;;;14.23;100.00
57827;BME280;43656;57.746;11.780;2022-10-15T09:27:48;100227.75;;;14.33;100.00
57827;BME280;43656;57.746;11.780;2022-10-15T09:30:38;100218.34;;;14.36;100.00
57827;BME280;43656;57.746;11.780;2022-10-15T09:35:43;100235.28;;;14.43;100.00
57827;BME280;43656;57.746;11.780;2022-10-15T09:44:09;100217.88;;;14.39;100.00
57827;BME280;43656;57.746;11.780;2022-10-15T09:46:45;100227.25;;;14.60;100.00
57827;BME280;43656;57.746;11.780;2022-10-15T09:49:25;100229.63;;;14.68;100.00
57827;BME280;43656;57.746;11.780;2022-10-15T09:57:00;100225.69;;;14.76;100.00
57827;BME280;43656;57.746;11.780;2022-10-15T09:59:25;100201.19;;;14.54;100.00
57827;BME280;43656;57.746;11.780;2022-10-15T10:01:58;100232.53;;;14.67;98.83
57827;BME280;43656;57.746;11.780;2022-10-15T10:04:34;100227.03;;;14.62;98.46
57827;BME280;43656;57.746;11.780;2022-10-15T10:07:05;100228.66;;;14.74;98.34
57827;BME280;43656;57.746;11.780;2022-10-15T10:09:37;100225.00;;;14.69;98.21
57827;BME280;43656;57.746;11.780;2022-10-15T10:12:05;100237.72;;;14.68;98.20
57827;BME280;43656;57.746;11.780;2022-10-15T10:14:35;100232.06;;;14.70;97.86
57827;BME280;43656;57.746;11.780;2022-10-15T10:17:24;100230.09;;;14.65;96.41
57827;BME280;43656;57.746;11.780;2022-10-15T10:22:27;100229.06;;;14.54;95.54
57827;BME280;43656;57.746;11.780;2022-10-15T10:24:52;100231.19;;;14.52;95.95
57827;BME280;43656;57.746;11.780;2022-10-15T10:27:23;100222.59;;;14.44;95.21
57827;BME280;43656;57.746;11.780;2022-10-15T10:30:00;100239.41;;;14.57;95.82
57827;BME280;43656;57.746;11.780;2022-10-15T10:32:46;100239.41;;;14.57;94.80
57827;BME280;43656;57.746;11.780;2022-10-15T10:35:19;100234.81;;;14.58;96.05
57827;BME280;43656;57.746;11.780;2022-10-15T10:37:46;100245.94;;;14.73;95.91
57827;BME280;43656;57.746;11.780;2022-10-15T10:40:27;100247.19;;;14.94;95.39
57827;BME280;43656;57.746;11.780;2022-10-15T10:46:01;100223.44;;;14.85;94.58
57827;BME280;43656;57.746;11.780;2022-10-15T10:48:47;100258.38;;;14.98;95.71
57827;BME280;43656;57.746;11.780;2022-10-15T10:51:22;100255.00;;;14.79;95.94
57827;BME280;43656;57.746;11.780;2022-10-15T10:56:36;100257.69;;;14.50;97.89
57827;BME280;43656;57.746;11.780;2022-10-15T10:59:10;100256.25;;;14.48;98.22
57827;BME280;43656;57.746;11.780;2022-10-15T11:01:37;100247.31;;;14.36;99.26
57827;BME280;43656;57.746;11.780;2022-10-15T11:04:03;100259.16;;;14.46;99.74
57827;BME280;43656;57.746;11.780;2022-10-15T11:15:24;100267.94;;;14.89;96.48
57827;BME280;43656;57.746;11.780;2022-10-15T11:23:35;100266.94;;;15.07;96.08
57827;BME280;43656;57.746;11.780;2022-10-15T11:29:07;100268.06;;;14.94;95.92
57827;BME280;43656;57.746;11.780;2022-10-15T11:32:12;100272.06;;;14.91;94.65
57827;BME280;43656;57.746;11.780;2022-10-15T11:37:32;100269.56;;;14.90;94.23
57827;BME280;43656;57.746;11.780;2022-10-15T11:40:29;100279.22;;;14.97;94.48
57827;BME280;43656;57.746;11.780;2022-10-15T11:45:51;100272.53;;;14.88;95.98
57827;BME280;43656;57.746;11.780;2022-10-15T11:48:42;100274.56;;;14.81;96.25
57827;BME280;43656;57.746;11.780;2022-10-15T11:53:55;100268.06;;;14.82;94.98
57827;BME280;43656;57.746;11.780;2022-10-15T11:56:33;100273.75;;;14.80;95.44
57827;BME280;43656;57.746;11.780;2022-10-15T11:59:13;100283.72;;;14.80;95.43
57827;BME280;43656;57.746;11.780;2022-10-15T12:01:54;100266.09;;;14.77;95.66
57827;BME280;43656;57.746;11.780;2022-10-15T12:04:41;100265.03;;;14.67;95.09
57827;BME280;43656;57.746;11.780;2022-10-15T12:07:20;100265.63;;;14.80;95.88
57827;BME280;43656;57.746;11.780;2022-10-15T12:09:51;100266.16;;;14.94;95.24
57827;BME280;43656;57.746;11.780;2022-10-15T12:12:29;100261.41;;;15.01;94.46
57827;BME280;43656;57.746;11.780;2022-10-15T12:20:29;100251.34;;;14.85;93.90
57827;BME280;43656;57.746;11.780;2022-10-15T12:23:22;100253.69;;;14.93;93.75
57827;BME280;43656;57.746;11.780;2022-10-15T12:25:48;100257.63;;;15.02;93.69
57827;BME280;43656;57.746;11.780;2022-10-15T12:28:22;100252.81;;;15.04;92.37
57827;BME280;43656;57.746;11.780;2022-10-15T12:30:56;100253.41;;;15.07;93.01
57827;BME280;43656;57.746;11.780;2022-10-15T12:33:52;100262.34;;;15.07;92.66
57827;BME280;43656;57.746;11.780;2022-10-15T12:41:21;100261.84;;;15.10;90.42
57827;BME280;43656;57.746;11.780;2022-10-15T12:44:20;100261.59;;;15.12;89.95
57827;BME280;43656;57.746;11.780;2022-10-15T12:46:47;100237.03;;;15.01;90.03
57827;BME280;43656;57.746;11.780;2022-10-15T12:51:55;100249.13;;;15.11;88.98
57827;BME280;43656;57.746;11.780;2022-10-15T12:54:44;100243.38;;;15.07;88.73
57827;BME280;43656;57.746;11.780;2022-10-15T13:02:46;100226.78;;;15.03;88.07
57827;BME280;43656;57.746;11.780;2022-10-15T13:05:25;100217.75;;;14.86;87.88
57827;BME280;43656;57.746;11.780;2022-10-15T13:07:51;100235.75;;;14.92;87.31
57827;BME280;43656;57.746;11.780;2022-10-15T13:10:26;100231.75;;;14.95;86.65
57827;BME280;43656;57.746;11.780;2022-10-15T13:12:55;100246.94;;;14.96;86.82
57827;BME280;43656;57.746;11.780;2022-10-15T13:15:27;100251.66;;;15.00;86.36
57827;BME280;43656;57.746;11.780;2022-10-15T13:17:55;100247.28;;;14.99;86.34
57827;BME280;43656;57.746;11.780;2022-10-15T13:20:37;100246.13;;;14.95;87.00
57827;BME280;43656;57.746;11.780;2022-10-15T13:23:18;100220.88;;;14.78;87.69
57827;BME280;43656;57.746;11.780;2022-10-15T13:25:46;100244.75;;;14.81;88.87
57827;BME280;43656;57.746;11.780;2022-10-15T13:28:35;100221.50;;;14.68;89.66
57827;BME280;43656;57.746;11.780;2022-10-15T13:31:05;100232.19;;;14.75;90.62
57827;BME280;43656;57.746;11.780;2022-10-15T13:33:40;100228.41;;;14.76;91.36
57827;BME280;43656;57.746;11.780;2022-10-15T13:36:08;100231.50;;;14.68;92.35
57827;BME280;43656;57.746;11.780;2022-10-15T13:38:36;100229.28;;;14.65;93.09
57827;BME280;43656;57.746;11.780;2022-10-15T13:41:02;100231.53;;;14.56;94.25
57827;BME280;43656;57.746;11.780;2022-10-15T13:43:28;100151.34;;;14.03;94.73
57827;BME280;43656;57.746;11.780;2022-10-15T13:45:56;100226.03;;;14.51;95.20
57827;BME280;43656;57.746;11.780;2022-10-15T13:48:25;100223.97;;;14.46;95.75
57827;BME280;43656;57.746;11.780;2022-10-15T13:51:02;100226.13;;;14.44;94.64
57827;BME280;43656;57.746;11.780;2022-10-15T13:53:32;100228.84;;;14.32;94.07
57827;BME280;43656;57.746;11.780;2022-10-15T13:56:02;100234.16;;;14.27;94.22
57827;BME280;43656;57.746;11.780;2022-10-15T13:58:35;100232.13;;;14.23;94.28
57827;BME280;43656;57.746;11.780;2022-10-15T14:01:17;100223.47;;;14.21;94.50
57827;BME280;43656;57.746;11.780;2022-10-15T14:03:50;100222.38;;;14.22;95.50
57827;BME280;43656;57.746;11.780;2022-10-15T14:06:24;100220.28;;;14.24;97.04
57827;BME280;43656;57.746;11.780;2022-10-15T14:08:52;100213.53;;;14.26;98.19
57827;BME280;43656;57.746;11.780;2022-10-15T14:11:18;100211.44;;;14.28;99.28
57827;BME280;43656;57.746;11.780;2022-10-15T14:13:57;100194.38;;;14.16;100.00
57827;BME280;43656;57.746;11.780;2022-10-15T14:18:54;100201.69;;;14.27;100.00
57827;BME280;43656;57.746;11.780;2022-10-15T14:21:22;100179.19;;;14.27;100.00
57827;BME280;43656;57.746;11.780;2022-10-15T14:26:37;100205.84;;;14.47;100.00
57827;BME280;43656;57.746;11.780;2022-10-15T14:29:03;100206.22;;;14.39;100.00
57827;BME280;43656;57.746;11.780;2022-10-15T14:31:37;100176.25;;;14.17;100.00